sensor_id;sensor_type;location;lat;lon;timestamp;P1;durP1;ratioP1;P2;durP2;ratioP2
29246;SDS011;16272;48.188;9.964;2023-02-01T00:01:42;9.97;;;3.10;;
29246;SDS011;16272;48.188;9.964;2023-02-01T00:04:08;9.32;;;3.05;;
29246;SDS011;16272;48.188;9.964;2023-02-01T00:06:33;8.83;;;2.70;;
29246;SDS011;16272;48.188;9.964;2023-02-01T00:08:59;13.20;;;3.90;;
29246;SDS011;16272;48.188;9.964;2023-02-01T00:11:24;10.50;;;3.20;;
29246;SDS011;16272;48.188;9.964;2023-02-01T00:13:50;9.75;;;3.47;;
29246;SDS011;16272;48.188;9.964;2023-02-01T00:16:16;9.87;;;3.23;;
29246;SDS011;16272;48.188;9.964;2023-02-01T00:18:42;9.93;;;3.27;;
29246;SDS011;16272;48.188;9.964;2023-02-01T00:21:09;12.02;;;3.90;;
29246;SDS011;16272;48.188;9.964;2023-02-01T00:23:35;10.38;;;3.85;;
29246;SDS011;16272;48.188;9.964;2023-02-01T00:26:03;8.85;;;2.92;;
29246;SDS011;16272;48.188;9.964;2023-02-01T00:28:30;11.15;;;3.95;;
29246;SDS011;16272;48.188;9.964;2023-02-01T00:30:59;10.63;;;3.50;;
29246;SDS011;16272;48.188;9.964;2023-02-01T00:33:25;10.32;;;3.90;;
29246;SDS011;16272;48.188;9.964;2023-02-01T00:35:50;9.90;;;3.47;;
29246;SDS011;16272;48.188;9.964;2023-02-01T00:38:16;9.63;;;3.50;;
29246;SDS011;16272;48.188;9.964;2023-02-01T00:40:41;9.30;;;3.27;;
29246;SDS011;16272;48.188;9.964;2023-02-01T00:43:07;10.40;;;3.90;;
29246;SDS011;16272;48.188;9.964;2023-02-01T00:45:32;13.90;;;4.33;;
29246;SDS011;16272;48.188;9.964;2023-02-01T00:47:57;10.90;;;3.77;;
29246;SDS011;16272;48.188;9.964;2023-02-01T00:50:22;10.37;;;3.77;;
29246;SDS011;16272;48.188;9.964;2023-02-01T00:52:48;9.63;;;3.70;;
29246;SDS011;16272;48.188;9.964;2023-02-01T00:55:13;10.10;;;3.83;;
29246;SDS011;16272;48.188;9.964;2023-02-01T00:57:38;12.23;;;4.17;;
29246;SDS011;16272;48.188;9.964;2023-02-01T01:00:04;11.13;;;4.20;;
29246;SDS011;16272;48.188;9.964;2023-02-01T01:02:30;13.57;;;4.03;;
29246;SDS011;16272;48.188;9.964;2023-02-01T01:04:55;10.90;;;3.90;;
29246;SDS011;16272;48.188;9.964;2023-02-01T01:07:20;12.60;;;4.00;;
29246;SDS011;16272;48.188;9.964;2023-02-01T01:09:46;10.68;;;3.13;;
29246;SDS011;16272;48.188;9.964;2023-02-01T01:12:11;10.40;;;3.60;;
29246;SDS011;16272;48.188;9.964;2023-02-01T01:14:36;10.93;;;4.07;;
29246;SDS011;16272;48.188;9.964;2023-02-01T01:17:02;10.17;;;3.27;;
29246;SDS011;16272;48.188;9.964;2023-02-01T01:19:27;13.07;;;4.17;;
29246;SDS011;16272;48.188;9.964;2023-02-01T01:21:52;12.13;;;4.30;;
29246;SDS011;16272;48.188;9.964;2023-02-01T01:24:18;11.80;;;3.97;;
29246;SDS011;16272;48.188;9.964;2023-02-01T01:26:43;10.40;;;3.17;;
29246;SDS011;16272;48.188;9.964;2023-02-01T01:29:08;11.77;;;4.13;;
29246;SDS011;16272;48.188;9.964;2023-02-01T01:31:34;12.50;;;4.10;;
29246;SDS011;16272;48.188;9.964;2023-02-01T01:33:59;9.50;;;2.77;;
29246;SDS011;16272;48.188;9.964;2023-02-01T01:36:25;10.20;;;3.80;;
29246;SDS011;16272;48.188;9.964;2023-02-01T01:38:51;9.88;;;3.45;;
29246;SDS011;16272;48.188;9.964;2023-02-01T01:41:24;10.77;;;3.57;;
29246;SDS011;16272;48.188;9.964;2023-02-01T01:44:00;10.60;;;3.22;;
29246;SDS011;16272;48.188;9.964;2023-02-01T01:46:27;8.98;;;2.92;;
29246;SDS011;16272;48.188;9.964;2023-02-01T01:51:57;10.52;;;3.45;;
29246;SDS011;16272;48.188;9.964;2023-02-01T01:54:31;15.00;;;4.55;;
29246;SDS011;16272;48.188;9.964;2023-02-01T01:57:11;10.40;;;3.60;;
29246;SDS011;16272;48.188;9.964;2023-02-01T01:59:40;11.07;;;4.00;;
29246;SDS011;16272;48.188;9.964;2023-02-01T02:02:11;10.67;;;3.40;;
29246;SDS011;16272;48.188;9.964;2023-02-01T02:04:36;10.50;;;3.75;;
29246;SDS011;16272;48.188;9.964;2023-02-01T02:07:08;11.57;;;3.63;;
29246;SDS011;16272;48.188;9.964;2023-02-01T02:09:36;10.43;;;3.65;;
29246;SDS011;16272;48.188;9.964;2023-02-01T02:12:02;10.50;;;3.95;;
29246;SDS011;16272;48.188;9.964;2023-02-01T02:14:28;10.67;;;3.70;;
29246;SDS011;16272;48.188;9.964;2023-02-01T02:22:43;10.67;;;3.20;;
29246;SDS011;16272;48.188;9.964;2023-02-01T02:31:22;10.35;;;3.13;;
29246;SDS011;16272;48.188;9.964;2023-02-01T02:34:26;9.57;;;2.85;;
29246;SDS011;16272;48.188;9.964;2023-02-01T02:37:01;9.53;;;3.03;;
29246;SDS011;16272;48.188;9.964;2023-02-01T02:39:33;10.10;;;3.20;;
29246;SDS011;16272;48.188;9.964;2023-02-01T02:42:02;9.30;;;3.15;;
29246;SDS011;16272;48.188;9.964;2023-02-01T02:44:49;8.63;;;2.70;;
29246;SDS011;16272;48.188;9.964;2023-02-01T02:47:50;10.45;;;3.70;;
29246;SDS011;16272;48.188;9.964;2023-02-01T02:50:26;7.33;;;2.37;;
29246;SDS011;16272;48.188;9.964;2023-02-01T02:53:17;8.07;;;2.72;;
29246;SDS011;16272;48.188;9.964;2023-02-01T02:56:05;9.25;;;3.20;;
29246;SDS011;16272;48.188;9.964;2023-02-01T02:58:51;6.25;;;1.83;;
29246;SDS011;16272;48.188;9.964;2023-02-01T03:01:37;8.68;;;3.00;;
29246;SDS011;16272;48.188;9.964;2023-02-01T03:04:23;7.77;;;2.43;;
29246;SDS011;16272;48.188;9.964;2023-02-01T03:06:51;8.18;;;2.53;;
29246;SDS011;16272;48.188;9.964;2023-02-01T03:09:27;7.40;;;2.35;;
29246;SDS011;16272;48.188;9.964;2023-02-01T03:11:58;7.68;;;2.88;;
29246;SDS011;16272;48.188;9.964;2023-02-01T03:14:49;9.68;;;3.10;;
29246;SDS011;16272;48.188;9.964;2023-02-01T03:17:22;8.03;;;2.47;;
29246;SDS011;16272;48.188;9.964;2023-02-01T03:19:55;9.60;;;3.17;;
29246;SDS011;16272;48.188;9.964;2023-02-01T03:22:27;9.50;;;3.35;;
29246;SDS011;16272;48.188;9.964;2023-02-01T03:24:59;7.40;;;2.40;;
29246;SDS011;16272;48.188;9.964;2023-02-01T03:27:32;7.45;;;2.50;;
29246;SDS011;16272;48.188;9.964;2023-02-01T03:32:35;7.82;;;2.72;;
29246;SDS011;16272;48.188;9.964;2023-02-01T03:35:25;10.27;;;2.90;;
29246;SDS011;16272;48.188;9.964;2023-02-01T03:38:03;7.57;;;2.42;;
29246;SDS011;16272;48.188;9.964;2023-02-01T03:40:44;10.48;;;3.30;;
29246;SDS011;16272;48.188;9.964;2023-02-01T03:43:14;7.83;;;2.57;;
29246;SDS011;16272;48.188;9.964;2023-02-01T03:45:44;7.53;;;2.30;;
29246;SDS011;16272;48.188;9.964;2023-02-01T03:48:15;7.80;;;2.55;;
29246;SDS011;16272;48.188;9.964;2023-02-01T03:50:44;8.30;;;2.65;;
29246;SDS011;16272;48.188;9.964;2023-02-01T03:53:14;7.47;;;2.55;;
29246;SDS011;16272;48.188;9.964;2023-02-01T03:55:43;8.30;;;2.70;;
29246;SDS011;16272;48.188;9.964;2023-02-01T03:58:11;8.02;;;2.50;;
29246;SDS011;16272;48.188;9.964;2023-02-01T04:00:39;9.27;;;2.95;;
29246;SDS011;16272;48.188;9.964;2023-02-01T04:03:05;8.80;;;3.07;;
29246;SDS011;16272;48.188;9.964;2023-02-01T04:05:31;8.63;;;2.92;;
29246;SDS011;16272;48.188;9.964;2023-02-01T04:07:57;10.23;;;3.20;;
29246;SDS011;16272;48.188;9.964;2023-02-01T04:10:23;8.98;;;3.00;;
29246;SDS011;16272;48.188;9.964;2023-02-01T04:12:49;8.47;;;2.70;;
29246;SDS011;16272;48.188;9.964;2023-02-01T04:15:15;10.35;;;2.97;;
29246;SDS011;16272;48.188;9.964;2023-02-01T04:17:40;9.33;;;2.70;;
29246;SDS011;16272;48.188;9.964;2023-02-01T04:20:05;8.83;;;2.97;;
29246;SDS011;16272;48.188;9.964;2023-02-01T04:22:31;9.65;;;2.50;;
29246;SDS011;16272;48.188;9.964;2023-02-01T04:24:57;9.27;;;2.73;;
29246;SDS011;16272;48.188;9.964;2023-02-01T04:27:22;8.97;;;2.80;;
29246;SDS011;16272;48.188;9.964;2023-02-01T04:29:47;7.50;;;2.33;;
29246;SDS011;16272;48.188;9.964;2023-02-01T04:32:14;9.23;;;2.83;;
29246;SDS011;16272;48.188;9.964;2023-02-01T04:34:40;9.13;;;2.65;;
29246;SDS011;16272;48.188;9.964;2023-02-01T04:37:06;10.30;;;3.67;;
29246;SDS011;16272;48.188;9.964;2023-02-01T04:39:32;10.02;;;3.20;;
29246;SDS011;16272;48.188;9.964;2023-02-01T04:41:57;8.83;;;3.20;;
29246;SDS011;16272;48.188;9.964;2023-02-01T04:44:23;10.60;;;3.73;;
29246;SDS011;16272;48.188;9.964;2023-02-01T04:46:48;10.23;;;3.55;;
29246;SDS011;16272;48.188;9.964;2023-02-01T04:49:14;8.93;;;3.27;;
29246;SDS011;16272;48.188;9.964;2023-02-01T04:51:40;9.23;;;3.43;;
29246;SDS011;16272;48.188;9.964;2023-02-01T04:54:05;13.43;;;4.13;;
29246;SDS011;16272;48.188;9.964;2023-02-01T04:56:31;10.43;;;3.50;;
29246;SDS011;16272;48.188;9.964;2023-02-01T04:58:57;10.37;;;3.40;;
29246;SDS011;16272;48.188;9.964;2023-02-01T05:01:23;10.98;;;3.58;;
29246;SDS011;16272;48.188;9.964;2023-02-01T05:03:52;11.02;;;3.58;;
29246;SDS011;16272;48.188;9.964;2023-02-01T05:06:17;10.50;;;4.07;;
29246;SDS011;16272;48.188;9.964;2023-02-01T05:08:42;8.80;;;3.10;;
29246;SDS011;16272;48.188;9.964;2023-02-01T05:11:08;9.17;;;3.23;;
29246;SDS011;16272;48.188;9.964;2023-02-01T05:13:53;10.43;;;3.67;;
29246;SDS011;16272;48.188;9.964;2023-02-01T05:16:19;10.73;;;3.17;;
29246;SDS011;16272;48.188;9.964;2023-02-01T05:18:44;10.30;;;3.53;;
29246;SDS011;16272;48.188;9.964;2023-02-01T05:21:10;9.73;;;3.65;;
29246;SDS011;16272;48.188;9.964;2023-02-01T05:23:35;8.83;;;3.00;;
29246;SDS011;16272;48.188;9.964;2023-02-01T05:26:20;10.55;;;3.80;;
29246;SDS011;16272;48.188;9.964;2023-02-01T05:28:46;10.57;;;3.20;;
29246;SDS011;16272;48.188;9.964;2023-02-01T05:31:11;9.23;;;2.90;;
29246;SDS011;16272;48.188;9.964;2023-02-01T05:33:37;9.03;;;2.77;;
29246;SDS011;16272;48.188;9.964;2023-02-01T05:36:02;10.43;;;3.05;;
29246;SDS011;16272;48.188;9.964;2023-02-01T05:38:28;10.27;;;3.70;;
29246;SDS011;16272;48.188;9.964;2023-02-01T05:40:54;9.00;;;3.17;;
29246;SDS011;16272;48.188;9.964;2023-02-01T05:43:20;9.70;;;3.23;;
29246;SDS011;16272;48.188;9.964;2023-02-01T05:45:45;7.00;;;2.60;;
29246;SDS011;16272;48.188;9.964;2023-02-01T05:48:11;11.87;;;3.23;;
29246;SDS011;16272;48.188;9.964;2023-02-01T05:50:36;9.40;;;2.67;;
29246;SDS011;16272;48.188;9.964;2023-02-01T05:53:02;8.70;;;2.45;;
29246;SDS011;16272;48.188;9.964;2023-02-01T05:55:27;8.90;;;2.93;;
29246;SDS011;16272;48.188;9.964;2023-02-01T05:57:53;10.00;;;3.27;;
29246;SDS011;16272;48.188;9.964;2023-02-01T06:00:18;8.30;;;3.00;;
29246;SDS011;16272;48.188;9.964;2023-02-01T06:02:44;8.20;;;2.65;;
29246;SDS011;16272;48.188;9.964;2023-02-01T06:05:09;11.07;;;3.77;;
29246;SDS011;16272;48.188;9.964;2023-02-01T06:07:35;13.83;;;3.47;;
29246;SDS011;16272;48.188;9.964;2023-02-01T06:10:00;9.00;;;2.80;;
29246;SDS011;16272;48.188;9.964;2023-02-01T06:12:25;9.73;;;3.13;;
29246;SDS011;16272;48.188;9.964;2023-02-01T06:14:53;7.22;;;2.20;;
29246;SDS011;16272;48.188;9.964;2023-02-01T06:17:18;9.33;;;2.93;;
29246;SDS011;16272;48.188;9.964;2023-02-01T06:19:43;8.80;;;2.97;;
29246;SDS011;16272;48.188;9.964;2023-02-01T06:22:09;10.82;;;3.80;;
29246;SDS011;16272;48.188;9.964;2023-02-01T06:24:35;12.03;;;3.23;;
29246;SDS011;16272;48.188;9.964;2023-02-01T06:27:00;11.20;;;3.30;;
29246;SDS011;16272;48.188;9.964;2023-02-01T06:29:25;9.47;;;2.90;;
29246;SDS011;16272;48.188;9.964;2023-02-01T06:31:51;10.15;;;3.53;;
29246;SDS011;16272;48.188;9.964;2023-02-01T06:34:16;11.17;;;2.67;;
29246;SDS011;16272;48.188;9.964;2023-02-01T06:36:42;11.05;;;3.75;;
29246;SDS011;16272;48.188;9.964;2023-02-01T06:39:08;9.83;;;3.53;;
29246;SDS011;16272;48.188;9.964;2023-02-01T06:41:33;8.10;;;2.67;;
29246;SDS011;16272;48.188;9.964;2023-02-01T06:43:59;10.40;;;3.78;;
29246;SDS011;16272;48.188;9.964;2023-02-01T06:46:25;10.13;;;3.57;;
29246;SDS011;16272;48.188;9.964;2023-02-01T06:48:50;8.77;;;3.37;;
29246;SDS011;16272;48.188;9.964;2023-02-01T06:51:19;8.43;;;2.70;;
29246;SDS011;16272;48.188;9.964;2023-02-01T06:53:49;9.40;;;2.53;;
29246;SDS011;16272;48.188;9.964;2023-02-01T06:56:14;10.73;;;3.03;;
29246;SDS011;16272;48.188;9.964;2023-02-01T06:58:40;9.53;;;2.93;;
29246;SDS011;16272;48.188;9.964;2023-02-01T07:01:05;10.30;;;3.50;;
29246;SDS011;16272;48.188;9.964;2023-02-01T07:03:32;9.27;;;3.25;;
29246;SDS011;16272;48.188;9.964;2023-02-01T07:05:57;8.97;;;2.87;;
29246;SDS011;16272;48.188;9.964;2023-02-01T07:08:29;7.43;;;2.75;;
29246;SDS011;16272;48.188;9.964;2023-02-01T07:10:56;11.65;;;3.65;;
29246;SDS011;16272;48.188;9.964;2023-02-01T07:13:21;9.07;;;3.10;;
29246;SDS011;16272;48.188;9.964;2023-02-01T07:15:47;9.20;;;3.10;;
29246;SDS011;16272;48.188;9.964;2023-02-01T07:18:12;9.40;;;3.63;;
29246;SDS011;16272;48.188;9.964;2023-02-01T07:20:39;8.73;;;2.70;;
29246;SDS011;16272;48.188;9.964;2023-02-01T07:23:05;11.55;;;4.00;;
29246;SDS011;16272;48.188;9.964;2023-02-01T07:25:31;9.23;;;3.00;;
29246;SDS011;16272;48.188;9.964;2023-02-01T07:27:56;9.88;;;2.97;;
29246;SDS011;16272;48.188;9.964;2023-02-01T07:30:22;10.63;;;3.43;;
29246;SDS011;16272;48.188;9.964;2023-02-01T07:32:47;9.50;;;2.93;;
29246;SDS011;16272;48.188;9.964;2023-02-01T07:35:13;10.13;;;3.60;;
29246;SDS011;16272;48.188;9.964;2023-02-01T07:37:39;9.23;;;3.10;;
29246;SDS011;16272;48.188;9.964;2023-02-01T07:40:05;9.10;;;2.90;;
29246;SDS011;16272;48.188;9.964;2023-02-01T07:42:30;9.07;;;2.95;;
29246;SDS011;16272;48.188;9.964;2023-02-01T07:44:56;10.03;;;3.37;;
29246;SDS011;16272;48.188;9.964;2023-02-01T07:47:21;11.37;;;3.57;;
29246;SDS011;16272;48.188;9.964;2023-02-01T07:49:46;7.83;;;2.63;;
29246;SDS011;16272;48.188;9.964;2023-02-01T07:52:12;9.73;;;3.53;;
29246;SDS011;16272;48.188;9.964;2023-02-01T07:54:40;12.45;;;3.92;;
29246;SDS011;16272;48.188;9.964;2023-02-01T07:57:05;10.20;;;3.53;;
29246;SDS011;16272;48.188;9.964;2023-02-01T07:59:33;10.43;;;3.50;;
29246;SDS011;16272;48.188;9.964;2023-02-01T08:01:58;10.93;;;3.20;;
29246;SDS011;16272;48.188;9.964;2023-02-01T08:04:24;12.90;;;4.40;;
29246;SDS011;16272;48.188;9.964;2023-02-01T08:06:49;10.27;;;3.93;;
29246;SDS011;16272;48.188;9.964;2023-02-01T08:09:14;11.40;;;4.15;;
29246;SDS011;16272;48.188;9.964;2023-02-01T08:11:40;10.73;;;3.83;;
29246;SDS011;16272;48.188;9.964;2023-02-01T08:14:05;12.20;;;3.30;;
29246;SDS011;16272;48.188;9.964;2023-02-01T08:16:31;11.02;;;3.60;;
29246;SDS011;16272;48.188;9.964;2023-02-01T08:18:59;10.07;;;4.20;;
29246;SDS011;16272;48.188;9.964;2023-02-01T08:21:25;12.25;;;4.80;;
29246;SDS011;16272;48.188;9.964;2023-02-01T08:24:01;11.93;;;4.43;;
29246;SDS011;16272;48.188;9.964;2023-02-01T08:26:27;9.37;;;3.20;;
29246;SDS011;16272;48.188;9.964;2023-02-01T08:28:53;11.83;;;4.07;;
29246;SDS011;16272;48.188;9.964;2023-02-01T08:31:20;12.63;;;4.35;;
29246;SDS011;16272;48.188;9.964;2023-02-01T08:33:48;11.07;;;3.90;;
29246;SDS011;16272;48.188;9.964;2023-02-01T08:36:19;10.02;;;3.67;;
29246;SDS011;16272;48.188;9.964;2023-02-01T08:38:45;12.75;;;4.72;;
29246;SDS011;16272;48.188;9.964;2023-02-01T08:41:13;11.53;;;4.10;;
29246;SDS011;16272;48.188;9.964;2023-02-01T08:43:40;11.57;;;4.03;;
29246;SDS011;16272;48.188;9.964;2023-02-01T08:46:05;9.87;;;3.80;;
29246;SDS011;16272;48.188;9.964;2023-02-01T08:48:32;11.25;;;4.25;;
29246;SDS011;16272;48.188;9.964;2023-02-01T08:51:02;11.80;;;3.95;;
29246;SDS011;16272;48.188;9.964;2023-02-01T08:53:29;10.90;;;4.10;;
29246;SDS011;16272;48.188;9.964;2023-02-01T08:55:54;11.77;;;3.97;;
29246;SDS011;16272;48.188;9.964;2023-02-01T08:58:19;10.87;;;3.80;;
29246;SDS011;16272;48.188;9.964;2023-02-01T09:00:46;10.13;;;3.25;;
29246;SDS011;16272;48.188;9.964;2023-02-01T09:03:13;10.20;;;3.47;;
29246;SDS011;16272;48.188;9.964;2023-02-01T09:05:38;10.27;;;3.90;;
29246;SDS011;16272;48.188;9.964;2023-02-01T09:08:04;9.30;;;2.90;;
29246;SDS011;16272;48.188;9.964;2023-02-01T09:10:29;10.20;;;3.35;;
29246;SDS011;16272;48.188;9.964;2023-02-01T09:12:54;9.30;;;2.93;;
29246;SDS011;16272;48.188;9.964;2023-02-01T09:15:20;9.10;;;3.27;;
29246;SDS011;16272;48.188;9.964;2023-02-01T09:17:45;9.00;;;2.63;;
29246;SDS011;16272;48.188;9.964;2023-02-01T09:20:11;10.00;;;2.90;;
29246;SDS011;16272;48.188;9.964;2023-02-01T09:22:36;9.65;;;3.03;;
29246;SDS011;16272;48.188;9.964;2023-02-01T09:25:02;8.67;;;3.07;;
29246;SDS011;16272;48.188;9.964;2023-02-01T09:27:27;9.10;;;3.17;;
29246;SDS011;16272;48.188;9.964;2023-02-01T09:29:53;9.00;;;3.20;;
29246;SDS011;16272;48.188;9.964;2023-02-01T09:32:19;10.33;;;3.30;;
29246;SDS011;16272;48.188;9.964;2023-02-01T09:34:45;7.13;;;2.13;;
29246;SDS011;16272;48.188;9.964;2023-02-01T09:37:10;10.20;;;3.47;;
29246;SDS011;16272;48.188;9.964;2023-02-01T09:39:35;9.90;;;3.33;;
29246;SDS011;16272;48.188;9.964;2023-02-01T09:47:29;8.50;;;3.05;;
29246;SDS011;16272;48.188;9.964;2023-02-01T09:50:00;10.63;;;4.60;;
29246;SDS011;16272;48.188;9.964;2023-02-01T09:52:36;10.15;;;4.35;;
29246;SDS011;16272;48.188;9.964;2023-02-01T09:55:15;10.27;;;3.80;;
29246;SDS011;16272;48.188;9.964;2023-02-01T09:57:53;10.68;;;4.30;;
29246;SDS011;16272;48.188;9.964;2023-02-01T10:00:25;9.02;;;3.40;;
29246;SDS011;16272;48.188;9.964;2023-02-01T10:02:54;10.60;;;3.83;;
29246;SDS011;16272;48.188;9.964;2023-02-01T10:11:35;11.05;;;3.95;;
29246;SDS011;16272;48.188;9.964;2023-02-01T10:14:20;10.55;;;3.75;;
29246;SDS011;16272;48.188;9.964;2023-02-01T10:20:16;10.15;;;3.30;;
29246;SDS011;16272;48.188;9.964;2023-02-01T10:28:15;8.20;;;3.38;;
29246;SDS011;16272;48.188;9.964;2023-02-01T10:30:43;8.93;;;3.17;;
29246;SDS011;16272;48.188;9.964;2023-02-01T10:36:08;8.77;;;3.22;;
29246;SDS011;16272;48.188;9.964;2023-02-01T10:38:42;6.55;;;2.28;;
29246;SDS011;16272;48.188;9.964;2023-02-01T10:41:12;9.70;;;3.47;;
29246;SDS011;16272;48.188;9.964;2023-02-01T10:43:41;8.43;;;3.07;;
29246;SDS011;16272;48.188;9.964;2023-02-01T10:46:08;10.77;;;2.78;;
29246;SDS011;16272;48.188;9.964;2023-02-01T10:48:34;8.55;;;3.25;;
29246;SDS011;16272;48.188;9.964;2023-02-01T10:51:00;9.13;;;3.47;;
29246;SDS011;16272;48.188;9.964;2023-02-01T10:56:14;9.40;;;3.20;;
29246;SDS011;16272;48.188;9.964;2023-02-01T10:58:47;9.82;;;2.88;;
29246;SDS011;16272;48.188;9.964;2023-02-01T11:01:17;9.00;;;2.97;;
29246;SDS011;16272;48.188;9.964;2023-02-01T11:03:51;7.78;;;2.90;;
29246;SDS011;16272;48.188;9.964;2023-02-01T11:06:32;7.95;;;2.60;;
29246;SDS011;16272;48.188;9.964;2023-02-01T11:09:22;9.70;;;2.83;;
29246;SDS011;16272;48.188;9.964;2023-02-01T11:14:19;9.93;;;2.97;;
29246;SDS011;16272;48.188;9.964;2023-02-01T11:19:55;8.63;;;2.28;;
29246;SDS011;16272;48.188;9.964;2023-02-01T11:22:22;8.00;;;2.50;;
29246;SDS011;16272;48.188;9.964;2023-02-01T11:24:50;9.48;;;2.95;;
29246;SDS011;16272;48.188;9.964;2023-02-01T11:27:18;9.40;;;3.20;;
29246;SDS011;16272;48.188;9.964;2023-02-01T11:29:47;7.65;;;2.20;;
29246;SDS011;16272;48.188;9.964;2023-02-01T11:32:16;10.48;;;3.30;;
29246;SDS011;16272;48.188;9.964;2023-02-01T11:35:01;8.37;;;2.77;;
29246;SDS011;16272;48.188;9.964;2023-02-01T11:37:30;10.52;;;2.90;;
29246;SDS011;16272;48.188;9.964;2023-02-01T11:40:00;10.13;;;3.00;;
29246;SDS011;16272;48.188;9.964;2023-02-01T11:42:29;9.82;;;2.58;;
29246;SDS011;16272;48.188;9.964;2023-02-01T11:45:17;7.93;;;2.88;;
29246;SDS011;16272;48.188;9.964;2023-02-01T11:47:53;8.33;;;3.30;;
29246;SDS011;16272;48.188;9.964;2023-02-01T11:59:08;8.27;;;2.88;;
29246;SDS011;16272;48.188;9.964;2023-02-01T12:01:57;11.50;;;2.83;;
29246;SDS011;16272;48.188;9.964;2023-02-01T12:07:43;9.63;;;2.92;;
29246;SDS011;16272;48.188;9.964;2023-02-01T12:15:32;9.23;;;3.07;;
29246;SDS011;16272;48.188;9.964;2023-02-01T12:18:24;9.07;;;2.80;;
29246;SDS011;16272;48.188;9.964;2023-02-01T12:21:04;8.60;;;2.55;;
29246;SDS011;16272;48.188;9.964;2023-02-01T12:26:50;8.00;;;2.60;;
29246;SDS011;16272;48.188;9.964;2023-02-01T12:32:28;8.15;;;2.13;;
29246;SDS011;16272;48.188;9.964;2023-02-01T12:35:20;7.65;;;2.42;;
29246;SDS011;16272;48.188;9.964;2023-02-01T12:38:19;7.18;;;2.28;;
29246;SDS011;16272;48.188;9.964;2023-02-01T12:44:27;9.73;;;2.80;;
29246;SDS011;16272;48.188;9.964;2023-02-01T12:46:45;8.65;;;3.10;;
29246;SDS011;16272;48.188;9.964;2023-02-01T12:49:17;9.27;;;3.00;;
29246;SDS011;16272;48.188;9.964;2023-02-01T12:51:50;8.88;;;2.47;;
29246;SDS011;16272;48.188;9.964;2023-02-01T12:57:05;11.57;;;3.70;;
29246;SDS011;16272;48.188;9.964;2023-02-01T12:59:38;7.97;;;2.63;;
29246;SDS011;16272;48.188;9.964;2023-02-01T13:04:58;8.65;;;3.10;;
29246;SDS011;16272;48.188;9.964;2023-02-01T13:07:31;7.22;;;2.47;;
29246;SDS011;16272;48.188;9.964;2023-02-01T13:12:40;8.48;;;2.90;;
29246;SDS011;16272;48.188;9.964;2023-02-01T13:15:16;9.02;;;2.50;;
29246;SDS011;16272;48.188;9.964;2023-02-01T13:17:46;7.30;;;2.72;;
29246;SDS011;16272;48.188;9.964;2023-02-01T13:20:37;7.75;;;2.20;;
29246;SDS011;16272;48.188;9.964;2023-02-01T13:23:07;7.27;;;2.27;;
29246;SDS011;16272;48.188;9.964;2023-02-01T13:25:43;8.65;;;3.20;;
29246;SDS011;16272;48.188;9.964;2023-02-01T13:39:19;8.40;;;2.33;;
29246;SDS011;16272;48.188;9.964;2023-02-01T13:41:51;6.72;;;2.22;;
29246;SDS011;16272;48.188;9.964;2023-02-01T13:44:24;8.35;;;2.53;;
29246;SDS011;16272;48.188;9.964;2023-02-01T13:46:54;8.57;;;2.42;;
29246;SDS011;16272;48.188;9.964;2023-02-01T13:49:23;6.63;;;2.13;;
29246;SDS011;16272;48.188;9.964;2023-02-01T13:51:53;8.80;;;2.78;;
29246;SDS011;16272;48.188;9.964;2023-02-01T13:54:26;7.60;;;2.38;;
29246;SDS011;16272;48.188;9.964;2023-02-01T13:57:06;7.75;;;2.17;;
29246;SDS011;16272;48.188;9.964;2023-02-01T14:00:22;7.53;;;2.20;;
29246;SDS011;16272;48.188;9.964;2023-02-01T14:13:20;8.52;;;2.40;;
29246;SDS011;16272;48.188;9.964;2023-02-01T14:26:45;8.07;;;2.25;;
29246;SDS011;16272;48.188;9.964;2023-02-01T14:32:02;9.37;;;2.20;;
29246;SDS011;16272;48.188;9.964;2023-02-01T14:37:08;8.48;;;1.75;;
29246;SDS011;16272;48.188;9.964;2023-02-01T14:42:25;5.97;;;1.20;;
29246;SDS011;16272;48.188;9.964;2023-02-01T14:58:25;8.23;;;1.23;;
29246;SDS011;16272;48.188;9.964;2023-02-01T15:00:59;4.88;;;1.00;;
29246;SDS011;16272;48.188;9.964;2023-02-01T15:03:36;4.97;;;1.20;;
29246;SDS011;16272;48.188;9.964;2023-02-01T15:06:20;8.13;;;1.70;;
29246;SDS011;16272;48.188;9.964;2023-02-01T15:08:49;5.63;;;1.35;;
29246;SDS011;16272;48.188;9.964;2023-02-01T15:11:19;6.80;;;1.43;;
29246;SDS011;16272;48.188;9.964;2023-02-01T15:13:51;6.03;;;1.52;;
29246;SDS011;16272;48.188;9.964;2023-02-01T15:16:19;5.87;;;1.50;;
29246;SDS011;16272;48.188;9.964;2023-02-01T15:18:46;8.38;;;1.15;;
29246;SDS011;16272;48.188;9.964;2023-02-01T15:21:17;7.25;;;1.95;;
29246;SDS011;16272;48.188;9.964;2023-02-01T15:23:48;6.27;;;1.63;;
29246;SDS011;16272;48.188;9.964;2023-02-01T15:26:29;7.05;;;1.60;;
29246;SDS011;16272;48.188;9.964;2023-02-01T15:28:59;6.30;;;1.42;;
29246;SDS011;16272;48.188;9.964;2023-02-01T15:34:20;6.03;;;1.38;;
29246;SDS011;16272;48.188;9.964;2023-02-01T15:36:46;7.88;;;1.65;;
29246;SDS011;16272;48.188;9.964;2023-02-01T15:39:22;8.90;;;1.75;;
29246;SDS011;16272;48.188;9.964;2023-02-01T15:41:54;7.63;;;1.80;;
29246;SDS011;16272;48.188;9.964;2023-02-01T15:44:30;8.97;;;1.93;;
29246;SDS011;16272;48.188;9.964;2023-02-01T15:46:58;7.25;;;1.83;;
29246;SDS011;16272;48.188;9.964;2023-02-01T15:49:30;11.30;;;2.08;;
29246;SDS011;16272;48.188;9.964;2023-02-01T15:52:01;7.60;;;1.77;;
29246;SDS011;16272;48.188;9.964;2023-02-01T15:54:31;8.30;;;1.42;;
29246;SDS011;16272;48.188;9.964;2023-02-01T15:57:02;6.23;;;1.83;;
29246;SDS011;16272;48.188;9.964;2023-02-01T16:00:04;7.60;;;1.88;;
29246;SDS011;16272;48.188;9.964;2023-02-01T16:02:37;9.10;;;2.10;;
29246;SDS011;16272;48.188;9.964;2023-02-01T16:08:00;6.13;;;1.70;;
29246;SDS011;16272;48.188;9.964;2023-02-01T16:10:30;7.57;;;1.50;;
29246;SDS011;16272;48.188;9.964;2023-02-01T16:12:57;8.25;;;1.58;;
29246;SDS011;16272;48.188;9.964;2023-02-01T16:15:25;8.25;;;1.90;;
29246;SDS011;16272;48.188;9.964;2023-02-01T16:17:54;8.02;;;1.65;;
29246;SDS011;16272;48.188;9.964;2023-02-01T16:20:19;7.10;;;1.53;;
29246;SDS011;16272;48.188;9.964;2023-02-01T16:22:45;6.83;;;1.80;;
29246;SDS011;16272;48.188;9.964;2023-02-01T16:25:10;7.17;;;1.73;;
29246;SDS011;16272;48.188;9.964;2023-02-01T16:27:35;8.53;;;1.67;;
29246;SDS011;16272;48.188;9.964;2023-02-01T16:30:01;7.10;;;1.83;;
29246;SDS011;16272;48.188;9.964;2023-02-01T16:32:26;8.07;;;1.63;;
29246;SDS011;16272;48.188;9.964;2023-02-01T16:34:51;8.17;;;1.70;;
29246;SDS011;16272;48.188;9.964;2023-02-01T16:37:20;7.60;;;1.38;;
29246;SDS011;16272;48.188;9.964;2023-02-01T16:39:47;7.35;;;1.70;;
29246;SDS011;16272;48.188;9.964;2023-02-01T16:42:13;6.27;;;1.60;;
29246;SDS011;16272;48.188;9.964;2023-02-01T16:44:40;7.53;;;1.50;;
29246;SDS011;16272;48.188;9.964;2023-02-01T16:47:19;7.63;;;1.58;;
29246;SDS011;16272;48.188;9.964;2023-02-01T16:49:46;6.77;;;1.30;;
29246;SDS011;16272;48.188;9.964;2023-02-01T16:52:18;7.22;;;1.60;;
29246;SDS011;16272;48.188;9.964;2023-02-01T16:54:45;9.77;;;1.88;;
29246;SDS011;16272;48.188;9.964;2023-02-01T16:57:14;6.10;;;1.70;;
29246;SDS011;16272;48.188;9.964;2023-02-01T16:59:42;6.63;;;1.50;;
29246;SDS011;16272;48.188;9.964;2023-02-01T17:02:11;7.53;;;1.58;;
29246;SDS011;16272;48.188;9.964;2023-02-01T17:04:37;7.10;;;1.70;;
29246;SDS011;16272;48.188;9.964;2023-02-01T17:07:03;5.70;;;1.60;;
29246;SDS011;16272;48.188;9.964;2023-02-01T17:09:34;9.33;;;1.97;;
29246;SDS011;16272;48.188;9.964;2023-02-01T17:12:01;11.25;;;2.05;;
29246;SDS011;16272;48.188;9.964;2023-02-01T17:14:27;8.18;;;2.08;;
29246;SDS011;16272;48.188;9.964;2023-02-01T17:16:54;8.13;;;1.60;;
29246;SDS011;16272;48.188;9.964;2023-02-01T17:19:20;6.67;;;1.50;;
29246;SDS011;16272;48.188;9.964;2023-02-01T17:21:48;9.00;;;1.60;;